sensor_id;sensor_type;location;lat;lon;timestamp;P1;durP1;ratioP1;P2;durP2;ratioP2
27539;SDS011;15906;52.046;4.724;2023-03-03T00:00:24;12.53;;;8.00;;
27539;SDS011;15906;52.046;4.724;2023-03-03T00:02:50;12.97;;;9.07;;
27539;SDS011;15906;52.046;4.724;2023-03-03T00:05:15;12.73;;;8.60;;
27539;SDS011;15906;52.046;4.724;2023-03-03T00:07:45;12.43;;;8.23;;
27539;SDS011;15906;52.046;4.724;2023-03-03T00:10:12;14.73;;;8.53;;
27539;SDS011;15906;52.046;4.724;2023-03-03T00:12:44;13.50;;;8.57;;
27539;SDS011;15906;52.046;4.724;2023-03-03T00:15:22;12.50;;;8.37;;
27539;SDS011;15906;52.046;4.724;2023-03-03T00:17:49;15.03;;;8.63;;
27539;SDS011;15906;52.046;4.724;2023-03-03T00:20:35;14.20;;;9.10;;
27539;SDS011;15906;52.046;4.724;2023-03-03T00:25:42;14.70;;;9.20;;
27539;SDS011;15906;52.046;4.724;2023-03-03T00:28:15;18.17;;;9.17;;
27539;SDS011;15906;52.046;4.724;2023-03-03T00:30:42;18.03;;;10.07;;
27539;SDS011;15906;52.046;4.724;2023-03-03T00:33:13;15.77;;;9.90;;
27539;SDS011;15906;52.046;4.724;2023-03-03T00:35:52;21.13;;;10.70;;
27539;SDS011;15906;52.046;4.724;2023-03-03T00:38:19;18.27;;;11.37;;
27539;SDS011;15906;52.046;4.724;2023-03-03T00:40:45;20.33;;;10.73;;
27539;SDS011;15906;52.046;4.724;2023-03-03T00:45:47;17.03;;;10.30;;
27539;SDS011;15906;52.046;4.724;2023-03-03T00:48:27;22.33;;;11.53;;
27539;SDS011;15906;52.046;4.724;2023-03-03T00:50:55;20.07;;;11.90;;
27539;SDS011;15906;52.046;4.724;2023-03-03T00:53:23;21.77;;;11.40;;
27539;SDS011;15906;52.046;4.724;2023-03-03T00:55:51;19.57;;;10.90;;
27539;SDS011;15906;52.046;4.724;2023-03-03T00:58:18;17.20;;;11.03;;
27539;SDS011;15906;52.046;4.724;2023-03-03T01:00:45;21.10;;;11.43;;
27539;SDS011;15906;52.046;4.724;2023-03-03T01:03:22;18.87;;;11.33;;
27539;SDS011;15906;52.046;4.724;2023-03-03T01:05:50;21.10;;;11.00;;
27539;SDS011;15906;52.046;4.724;2023-03-03T01:08:16;22.20;;;11.43;;
27539;SDS011;15906;52.046;4.724;2023-03-03T01:10:50;25.50;;;11.97;;
27539;SDS011;15906;52.046;4.724;2023-03-03T01:13:19;20.10;;;11.43;;
27539;SDS011;15906;52.046;4.724;2023-03-03T01:15:48;25.90;;;11.87;;
27539;SDS011;15906;52.046;4.724;2023-03-03T01:18:14;19.70;;;12.03;;
27539;SDS011;15906;52.046;4.724;2023-03-03T01:20:40;18.97;;;11.30;;
27539;SDS011;15906;52.046;4.724;2023-03-03T01:23:06;18.50;;;10.23;;
27539;SDS011;15906;52.046;4.724;2023-03-03T01:25:31;19.07;;;10.63;;
27539;SDS011;15906;52.046;4.724;2023-03-03T01:27:57;21.50;;;10.87;;
27539;SDS011;15906;52.046;4.724;2023-03-03T01:30:23;21.17;;;10.50;;
27539;SDS011;15906;52.046;4.724;2023-03-03T01:32:49;16.93;;;9.70;;
27539;SDS011;15906;52.046;4.724;2023-03-03T01:35:14;18.00;;;10.27;;
27539;SDS011;15906;52.046;4.724;2023-03-03T01:37:41;18.27;;;10.93;;
27539;SDS011;15906;52.046;4.724;2023-03-03T01:40:07;16.70;;;9.87;;
27539;SDS011;15906;52.046;4.724;2023-03-03T01:42:47;16.77;;;9.60;;
27539;SDS011;15906;52.046;4.724;2023-03-03T01:45:15;15.97;;;8.90;;
27539;SDS011;15906;52.046;4.724;2023-03-03T01:50:27;18.33;;;9.43;;
27539;SDS011;15906;52.046;4.724;2023-03-03T01:53:14;17.60;;;9.00;;
27539;SDS011;15906;52.046;4.724;2023-03-03T01:55:42;15.63;;;8.50;;
27539;SDS011;15906;52.046;4.724;2023-03-03T02:00:47;15.97;;;8.13;;
27539;SDS011;15906;52.046;4.724;2023-03-03T02:03:15;15.87;;;8.23;;
27539;SDS011;15906;52.046;4.724;2023-03-03T02:05:42;17.30;;;8.77;;
27539;SDS011;15906;52.046;4.724;2023-03-03T02:08:08;15.30;;;7.70;;
27539;SDS011;15906;52.046;4.724;2023-03-03T02:10:36;13.93;;;7.40;;
27539;SDS011;15906;52.046;4.724;2023-03-03T02:13:02;14.10;;;7.50;;
27539;SDS011;15906;52.046;4.724;2023-03-03T02:15:32;10.37;;;6.80;;
27539;SDS011;15906;52.046;4.724;2023-03-03T02:20:54;15.57;;;7.10;;
27539;SDS011;15906;52.046;4.724;2023-03-03T02:28:22;14.80;;;7.50;;
27539;SDS011;15906;52.046;4.724;2023-03-03T02:30:51;20.40;;;7.87;;
27539;SDS011;15906;52.046;4.724;2023-03-03T02:33:19;14.53;;;8.23;;
27539;SDS011;15906;52.046;4.724;2023-03-03T02:35:45;14.43;;;7.70;;
27539;SDS011;15906;52.046;4.724;2023-03-03T02:40:57;18.70;;;9.70;;
27539;SDS011;15906;52.046;4.724;2023-03-03T02:43:49;14.20;;;8.60;;
27539;SDS011;15906;52.046;4.724;2023-03-03T02:46:25;18.83;;;9.43;;
27539;SDS011;15906;52.046;4.724;2023-03-03T02:48:52;20.93;;;10.70;;
27539;SDS011;15906;52.046;4.724;2023-03-03T02:51:18;19.03;;;10.20;;
27539;SDS011;15906;52.046;4.724;2023-03-03T02:53:44;20.40;;;11.47;;
27539;SDS011;15906;52.046;4.724;2023-03-03T02:56:10;18.70;;;11.43;;
27539;SDS011;15906;52.046;4.724;2023-03-03T02:58:36;22.80;;;12.80;;
27539;SDS011;15906;52.046;4.724;2023-03-03T03:01:02;24.90;;;12.10;;
27539;SDS011;15906;52.046;4.724;2023-03-03T03:03:28;23.93;;;13.53;;
27539;SDS011;15906;52.046;4.724;2023-03-03T03:05:54;19.10;;;11.00;;
27539;SDS011;15906;52.046;4.724;2023-03-03T03:08:20;25.00;;;12.67;;
27539;SDS011;15906;52.046;4.724;2023-03-03T03:10:45;21.77;;;12.77;;
27539;SDS011;15906;52.046;4.724;2023-03-03T03:13:11;22.47;;;12.23;;
27539;SDS011;15906;52.046;4.724;2023-03-03T03:15:37;23.17;;;12.77;;
27539;SDS011;15906;52.046;4.724;2023-03-03T03:18:03;21.33;;;12.27;;
27539;SDS011;15906;52.046;4.724;2023-03-03T03:20:28;23.90;;;13.10;;
27539;SDS011;15906;52.046;4.724;2023-03-03T03:22:54;25.20;;;13.53;;
27539;SDS011;15906;52.046;4.724;2023-03-03T03:25:19;24.70;;;14.40;;
27539;SDS011;15906;52.046;4.724;2023-03-03T03:27:45;29.00;;;12.73;;
27539;SDS011;15906;52.046;4.724;2023-03-03T03:30:11;30.17;;;14.93;;
27539;SDS011;15906;52.046;4.724;2023-03-03T03:32:37;28.40;;;13.00;;
27539;SDS011;15906;52.046;4.724;2023-03-03T03:35:02;35.90;;;13.20;;
27539;SDS011;15906;52.046;4.724;2023-03-03T03:37:28;28.60;;;11.70;;
27539;SDS011;15906;52.046;4.724;2023-03-03T03:39:54;29.23;;;12.27;;
27539;SDS011;15906;52.046;4.724;2023-03-03T03:42:20;23.53;;;12.37;;
27539;SDS011;15906;52.046;4.724;2023-03-03T03:44:46;26.50;;;12.37;;
27539;SDS011;15906;52.046;4.724;2023-03-03T03:47:11;34.43;;;10.57;;
27539;SDS011;15906;52.046;4.724;2023-03-03T03:49:37;30.20;;;11.33;;
27539;SDS011;15906;52.046;4.724;2023-03-03T03:52:02;25.13;;;9.97;;
27539;SDS011;15906;52.046;4.724;2023-03-03T03:54:28;27.23;;;11.60;;
27539;SDS011;15906;52.046;4.724;2023-03-03T03:56:53;20.80;;;10.97;;
27539;SDS011;15906;52.046;4.724;2023-03-03T03:59:19;24.67;;;11.40;;
27539;SDS011;15906;52.046;4.724;2023-03-03T04:01:45;22.00;;;11.40;;
27539;SDS011;15906;52.046;4.724;2023-03-03T04:04:12;24.67;;;12.40;;
27539;SDS011;15906;52.046;4.724;2023-03-03T04:06:37;24.63;;;11.80;;
27539;SDS011;15906;52.046;4.724;2023-03-03T04:09:03;23.73;;;12.00;;
27539;SDS011;15906;52.046;4.724;2023-03-03T04:11:29;26.40;;;12.73;;
27539;SDS011;15906;52.046;4.724;2023-03-03T04:13:54;27.97;;;13.07;;
27539;SDS011;15906;52.046;4.724;2023-03-03T04:16:20;27.03;;;13.77;;
27539;SDS011;15906;52.046;4.724;2023-03-03T04:18:45;25.53;;;13.30;;
27539;SDS011;15906;52.046;4.724;2023-03-03T04:21:15;26.10;;;13.17;;
27539;SDS011;15906;52.046;4.724;2023-03-03T04:23:40;29.97;;;13.83;;
27539;SDS011;15906;52.046;4.724;2023-03-03T04:26:06;32.30;;;14.80;;
27539;SDS011;15906;52.046;4.724;2023-03-03T04:28:32;28.90;;;14.53;;
27539;SDS011;15906;52.046;4.724;2023-03-03T04:30:58;30.83;;;14.13;;
27539;SDS011;15906;52.046;4.724;2023-03-03T04:33:24;32.17;;;14.07;;
27539;SDS011;15906;52.046;4.724;2023-03-03T04:35:50;32.33;;;14.73;;
27539;SDS011;15906;52.046;4.724;2023-03-03T04:38:16;32.27;;;13.90;;
27539;SDS011;15906;52.046;4.724;2023-03-03T04:40:42;31.17;;;13.97;;
27539;SDS011;15906;52.046;4.724;2023-03-03T04:43:08;30.70;;;13.97;;
27539;SDS011;15906;52.046;4.724;2023-03-03T04:45:34;27.50;;;12.90;;
27539;SDS011;15906;52.046;4.724;2023-03-03T04:48:00;28.20;;;13.63;;
27539;SDS011;15906;52.046;4.724;2023-03-03T04:50:26;27.73;;;12.23;;
27539;SDS011;15906;52.046;4.724;2023-03-03T04:52:52;27.97;;;13.33;;
27539;SDS011;15906;52.046;4.724;2023-03-03T04:55:17;25.83;;;12.60;;
27539;SDS011;15906;52.046;4.724;2023-03-03T04:57:43;24.93;;;11.77;;
27539;SDS011;15906;52.046;4.724;2023-03-03T05:00:09;25.73;;;12.33;;
27539;SDS011;15906;52.046;4.724;2023-03-03T05:02:39;25.70;;;12.43;;
27539;SDS011;15906;52.046;4.724;2023-03-03T05:05:06;25.30;;;12.40;;
27539;SDS011;15906;52.046;4.724;2023-03-03T05:07:34;21.97;;;11.57;;
27539;SDS011;15906;52.046;4.724;2023-03-03T05:09:59;24.27;;;12.30;;
27539;SDS011;15906;52.046;4.724;2023-03-03T05:12:25;26.03;;;12.77;;
27539;SDS011;15906;52.046;4.724;2023-03-03T05:14:51;24.30;;;12.47;;
27539;SDS011;15906;52.046;4.724;2023-03-03T05:17:16;27.53;;;13.23;;
27539;SDS011;15906;52.046;4.724;2023-03-03T05:19:42;25.93;;;13.13;;
27539;SDS011;15906;52.046;4.724;2023-03-03T05:22:08;29.20;;;13.00;;
27539;SDS011;15906;52.046;4.724;2023-03-03T05:24:34;31.43;;;14.23;;
27539;SDS011;15906;52.046;4.724;2023-03-03T05:27:00;28.83;;;13.97;;
27539;SDS011;15906;52.046;4.724;2023-03-03T05:29:25;34.30;;;14.70;;
27539;SDS011;15906;52.046;4.724;2023-03-03T05:31:52;31.97;;;14.27;;
27539;SDS011;15906;52.046;4.724;2023-03-03T05:34:18;33.90;;;14.63;;
27539;SDS011;15906;52.046;4.724;2023-03-03T05:36:43;28.00;;;14.17;;
27539;SDS011;15906;52.046;4.724;2023-03-03T05:39:09;34.40;;;14.73;;
27539;SDS011;15906;52.046;4.724;2023-03-03T05:41:35;30.30;;;14.17;;
27539;SDS011;15906;52.046;4.724;2023-03-03T05:44:01;33.77;;;14.73;;
27539;SDS011;15906;52.046;4.724;2023-03-03T05:46:27;28.23;;;13.70;;
27539;SDS011;15906;52.046;4.724;2023-03-03T05:48:52;32.60;;;14.37;;
27539;SDS011;15906;52.046;4.724;2023-03-03T05:51:18;41.77;;;14.53;;
27539;SDS011;15906;52.046;4.724;2023-03-03T05:53:43;29.67;;;13.53;;
27539;SDS011;15906;52.046;4.724;2023-03-03T05:56:09;33.80;;;14.70;;
27539;SDS011;15906;52.046;4.724;2023-03-03T05:58:34;29.27;;;12.80;;
27539;SDS011;15906;52.046;4.724;2023-03-03T06:01:00;29.97;;;13.40;;
27539;SDS011;15906;52.046;4.724;2023-03-03T06:03:25;36.53;;;14.10;;
27539;SDS011;15906;52.046;4.724;2023-03-03T06:05:51;32.07;;;12.40;;
27539;SDS011;15906;52.046;4.724;2023-03-03T06:08:17;30.67;;;13.50;;
27539;SDS011;15906;52.046;4.724;2023-03-03T06:10:42;26.57;;;12.40;;
27539;SDS011;15906;52.046;4.724;2023-03-03T06:13:08;37.87;;;13.03;;
27539;SDS011;15906;52.046;4.724;2023-03-03T06:15:33;45.27;;;13.67;;
27539;SDS011;15906;52.046;4.724;2023-03-03T06:17:59;30.53;;;11.93;;
27539;SDS011;15906;52.046;4.724;2023-03-03T06:20:24;34.97;;;13.83;;
27539;SDS011;15906;52.046;4.724;2023-03-03T06:22:50;31.40;;;12.33;;
27539;SDS011;15906;52.046;4.724;2023-03-03T06:25:16;41.03;;;13.43;;
27539;SDS011;15906;52.046;4.724;2023-03-03T06:27:42;35.03;;;12.73;;
27539;SDS011;15906;52.046;4.724;2023-03-03T06:30:08;34.43;;;13.60;;
27539;SDS011;15906;52.046;4.724;2023-03-03T06:32:34;34.57;;;14.57;;
27539;SDS011;15906;52.046;4.724;2023-03-03T06:34:59;30.13;;;12.87;;
27539;SDS011;15906;52.046;4.724;2023-03-03T06:37:25;29.03;;;13.87;;
27539;SDS011;15906;52.046;4.724;2023-03-03T06:39:50;29.30;;;14.17;;
27539;SDS011;15906;52.046;4.724;2023-03-03T06:42:16;27.43;;;13.17;;
27539;SDS011;15906;52.046;4.724;2023-03-03T06:44:42;29.80;;;14.00;;
27539;SDS011;15906;52.046;4.724;2023-03-03T06:47:08;33.17;;;13.43;;
27539;SDS011;15906;52.046;4.724;2023-03-03T06:49:34;28.80;;;14.90;;
27539;SDS011;15906;52.046;4.724;2023-03-03T06:52:00;32.70;;;14.00;;
27539;SDS011;15906;52.046;4.724;2023-03-03T06:54:33;31.83;;;14.23;;
27539;SDS011;15906;52.046;4.724;2023-03-03T06:57:00;44.23;;;15.43;;
27539;SDS011;15906;52.046;4.724;2023-03-03T06:59:40;27.60;;;13.33;;
27539;SDS011;15906;52.046;4.724;2023-03-03T07:02:10;26.63;;;14.13;;
27539;SDS011;15906;52.046;4.724;2023-03-03T07:04:41;28.93;;;15.07;;
27539;SDS011;15906;52.046;4.724;2023-03-03T07:07:10;28.93;;;14.17;;
27539;SDS011;15906;52.046;4.724;2023-03-03T07:09:49;32.47;;;15.33;;
27539;SDS011;15906;52.046;4.724;2023-03-03T07:12:17;28.57;;;15.10;;
27539;SDS011;15906;52.046;4.724;2023-03-03T07:14:47;33.37;;;14.73;;
27539;SDS011;15906;52.046;4.724;2023-03-03T07:17:20;32.17;;;14.80;;
27539;SDS011;15906;52.046;4.724;2023-03-03T07:19:48;33.07;;;16.07;;
27539;SDS011;15906;52.046;4.724;2023-03-03T07:22:15;28.07;;;13.80;;
27539;SDS011;15906;52.046;4.724;2023-03-03T07:24:43;31.47;;;14.77;;
27539;SDS011;15906;52.046;4.724;2023-03-03T07:27:13;32.40;;;14.43;;
27539;SDS011;15906;52.046;4.724;2023-03-03T07:29:50;26.97;;;14.27;;
27539;SDS011;15906;52.046;4.724;2023-03-03T07:35:12;31.40;;;13.73;;
27539;SDS011;15906;52.046;4.724;2023-03-03T07:37:55;28.63;;;14.37;;
27539;SDS011;15906;52.046;4.724;2023-03-03T07:40:40;28.97;;;15.40;;
27539;SDS011;15906;52.046;4.724;2023-03-03T07:43:26;27.23;;;13.83;;
27539;SDS011;15906;52.046;4.724;2023-03-03T07:45:57;43.23;;;17.57;;
27539;SDS011;15906;52.046;4.724;2023-03-03T07:48:46;31.00;;;13.93;;
27539;SDS011;15906;52.046;4.724;2023-03-03T07:53:52;32.37;;;13.07;;
27539;SDS011;15906;52.046;4.724;2023-03-03T07:56:37;30.10;;;14.77;;
27539;SDS011;15906;52.046;4.724;2023-03-03T07:59:08;30.43;;;14.00;;
27539;SDS011;15906;52.046;4.724;2023-03-03T08:01:56;27.93;;;12.53;;
27539;SDS011;15906;52.046;4.724;2023-03-03T08:04:38;27.47;;;12.53;;
27539;SDS011;15906;52.046;4.724;2023-03-03T08:07:10;23.27;;;11.70;;
27539;SDS011;15906;52.046;4.724;2023-03-03T08:09:50;27.57;;;12.80;;
27539;SDS011;15906;52.046;4.724;2023-03-03T08:12:26;24.47;;;11.67;;
27539;SDS011;15906;52.046;4.724;2023-03-03T08:17:44;23.47;;;12.67;;
27539;SDS011;15906;52.046;4.724;2023-03-03T08:23:09;23.53;;;10.63;;
27539;SDS011;15906;52.046;4.724;2023-03-03T08:25:36;22.47;;;11.13;;
27539;SDS011;15906;52.046;4.724;2023-03-03T08:28:02;27.33;;;12.20;;
27539;SDS011;15906;52.046;4.724;2023-03-03T08:30:27;25.70;;;11.87;;
27539;SDS011;15906;52.046;4.724;2023-03-03T08:32:53;20.80;;;11.10;;
27539;SDS011;15906;52.046;4.724;2023-03-03T08:35:18;21.97;;;10.60;;
27539;SDS011;15906;52.046;4.724;2023-03-03T08:37:44;18.87;;;10.87;;
27539;SDS011;15906;52.046;4.724;2023-03-03T08:40:09;21.17;;;11.60;;
27539;SDS011;15906;52.046;4.724;2023-03-03T08:42:35;24.07;;;12.03;;
27539;SDS011;15906;52.046;4.724;2023-03-03T08:45:01;22.13;;;11.17;;
27539;SDS011;15906;52.046;4.724;2023-03-03T08:47:26;21.37;;;10.93;;
27539;SDS011;15906;52.046;4.724;2023-03-03T08:49:52;23.83;;;11.00;;
27539;SDS011;15906;52.046;4.724;2023-03-03T08:52:18;24.93;;;11.10;;
27539;SDS011;15906;52.046;4.724;2023-03-03T08:54:44;20.63;;;11.20;;
27539;SDS011;15906;52.046;4.724;2023-03-03T08:57:09;22.97;;;11.97;;
27539;SDS011;15906;52.046;4.724;2023-03-03T08:59:35;21.97;;;11.07;;
27539;SDS011;15906;52.046;4.724;2023-03-03T09:02:03;18.80;;;10.73;;
27539;SDS011;15906;52.046;4.724;2023-03-03T09:04:30;16.63;;;10.07;;
27539;SDS011;15906;52.046;4.724;2023-03-03T09:06:55;17.80;;;10.63;;
27539;SDS011;15906;52.046;4.724;2023-03-03T09:09:21;21.33;;;10.40;;
27539;SDS011;15906;52.046;4.724;2023-03-03T09:11:47;18.60;;;9.93;;
27539;SDS011;15906;52.046;4.724;2023-03-03T09:14:14;25.23;;;10.17;;
27539;SDS011;15906;52.046;4.724;2023-03-03T09:16:51;19.60;;;9.80;;
27539;SDS011;15906;52.046;4.724;2023-03-03T09:19:28;16.07;;;9.30;;
27539;SDS011;15906;52.046;4.724;2023-03-03T09:22:01;18.80;;;10.03;;
27539;SDS011;15906;52.046;4.724;2023-03-03T09:24:42;16.73;;;9.77;;
27539;SDS011;15906;52.046;4.724;2023-03-03T09:29:53;19.67;;;10.47;;
27539;SDS011;15906;52.046;4.724;2023-03-03T09:32:36;16.87;;;9.73;;
27539;SDS011;15906;52.046;4.724;2023-03-03T09:37:51;21.23;;;10.23;;
27539;SDS011;15906;52.046;4.724;2023-03-03T09:40:36;25.93;;;11.30;;
27539;SDS011;15906;52.046;4.724;2023-03-03T09:46:00;14.67;;;9.23;;
27539;SDS011;15906;52.046;4.724;2023-03-03T09:48:38;15.80;;;8.37;;
27539;SDS011;15906;52.046;4.724;2023-03-03T09:51:12;11.77;;;7.67;;
27539;SDS011;15906;52.046;4.724;2023-03-03T09:53:50;16.63;;;8.73;;
27539;SDS011;15906;52.046;4.724;2023-03-03T09:57:04;20.57;;;9.53;;
27539;SDS011;15906;52.046;4.724;2023-03-03T09:59:48;11.60;;;7.43;;
27539;SDS011;15906;52.046;4.724;2023-03-03T10:08:02;15.50;;;7.15;;
27539;SDS011;15906;52.046;4.724;2023-03-03T10:10:46;11.95;;;6.80;;
27539;SDS011;15906;52.046;4.724;2023-03-03T10:13:19;10.80;;;6.47;;
27539;SDS011;15906;52.046;4.724;2023-03-03T10:18:52;23.65;;;8.18;;
27539;SDS011;15906;52.046;4.724;2023-03-03T10:22:12;17.52;;;6.78;;
27539;SDS011;15906;52.046;4.724;2023-03-03T10:24:28;19.48;;;7.03;;
27539;SDS011;15906;52.046;4.724;2023-03-03T10:32:22;12.93;;;5.80;;
27539;SDS011;15906;52.046;4.724;2023-03-03T10:34:59;10.48;;;5.25;;
27539;SDS011;15906;52.046;4.724;2023-03-03T10:40:25;13.32;;;4.97;;
27539;SDS011;15906;52.046;4.724;2023-03-03T11:08:29;7.03;;;4.45;;
27539;SDS011;15906;52.046;4.724;2023-03-03T11:11:11;8.10;;;4.28;;
27539;SDS011;15906;52.046;4.724;2023-03-03T11:27:22;6.63;;;3.35;;
27539;SDS011;15906;52.046;4.724;2023-03-03T11:41:03;5.75;;;2.42;;
27539;SDS011;15906;52.046;4.724;2023-03-03T11:46:48;9.18;;;3.67;;
27539;SDS011;15906;52.046;4.724;2023-03-03T11:49:23;6.53;;;2.83;;
27539;SDS011;15906;52.046;4.724;2023-03-03T11:57:55;3.25;;;1.80;;
27539;SDS011;15906;52.046;4.724;2023-03-03T12:14:01;6.32;;;2.20;;
27539;SDS011;15906;52.046;4.724;2023-03-03T12:19:50;2.70;;;1.67;;
27539;SDS011;15906;52.046;4.724;2023-03-03T12:22:56;4.97;;;2.33;;
27539;SDS011;15906;52.046;4.724;2023-03-03T12:25:34;3.15;;;1.83;;
27539;SDS011;15906;52.046;4.724;2023-03-03T12:28:09;8.27;;;1.77;;
27539;SDS011;15906;52.046;4.724;2023-03-03T12:30:46;8.40;;;2.10;;
27539;SDS011;15906;52.046;4.724;2023-03-03T12:41:55;6.53;;;1.90;;
27539;SDS011;15906;52.046;4.724;2023-03-03T12:47:26;4.00;;;2.42;;
27539;SDS011;15906;52.046;4.724;2023-03-03T12:55:52;10.20;;;2.85;;
27539;SDS011;15906;52.046;4.724;2023-03-03T13:01:31;6.53;;;2.55;;
27539;SDS011;15906;52.046;4.724;2023-03-03T13:04:08;5.80;;;2.85;;
27539;SDS011;15906;52.046;4.724;2023-03-03T13:09:37;7.03;;;2.38;;
27539;SDS011;15906;52.046;4.724;2023-03-03T13:12:27;4.15;;;2.00;;
27539;SDS011;15906;52.046;4.724;2023-03-03T13:21:03;2.90;;;2.05;;
27539;SDS011;15906;52.046;4.724;2023-03-03T13:24:32;4.93;;;1.90;;
27539;SDS011;15906;52.046;4.724;2023-03-03T13:26:36;2.45;;;1.67;;
27539;SDS011;15906;52.046;4.724;2023-03-03T13:29:26;3.20;;;1.45;;
27539;SDS011;15906;52.046;4.724;2023-03-03T13:42:50;2.72;;;1.65;;
27539;SDS011;15906;52.046;4.724;2023-03-03T13:45:30;2.92;;;1.67;;
27539;SDS011;15906;52.046;4.724;2023-03-03T13:48:35;3.75;;;1.60;;
27539;SDS011;15906;52.046;4.724;2023-03-03T13:51:22;4.78;;;1.58;;
27539;SDS011;15906;52.046;4.724;2023-03-03T13:54:20;5.53;;;1.95;;
27539;SDS011;15906;52.046;4.724;2023-03-03T13:57:17;2.30;;;1.55;;
27539;SDS011;15906;52.046;4.724;2023-03-03T14:05:38;3.13;;;1.35;;
27539;SDS011;15906;52.046;4.724;2023-03-03T14:08:19;2.80;;;1.83;;
27539;SDS011;15906;52.046;4.724;2023-03-03T14:13:43;5.55;;;1.88;;
27539;SDS011;15906;52.046;4.724;2023-03-03T14:27:28;4.70;;;1.92;;
27539;SDS011;15906;52.046;4.724;2023-03-03T14:33:00;3.40;;;1.75;;
27539;SDS011;15906;52.046;4.724;2023-03-03T14:35:38;4.20;;;1.80;;
27539;SDS011;15906;52.046;4.724;2023-03-03T14:43:39;4.65;;;2.17;;
27539;SDS011;15906;52.046;4.724;2023-03-03T14:46:35;5.57;;;1.85;;
27539;SDS011;15906;52.046;4.724;2023-03-03T14:51:55;2.25;;;2.05;;
27539;SDS011;15906;52.046;4.724;2023-03-03T14:54:28;3.40;;;2.20;;
27539;SDS011;15906;52.046;4.724;2023-03-03T15:05:26;9.25;;;2.60;;
27539;SDS011;15906;52.046;4.724;2023-03-03T15:10:29;7.78;;;2.70;;
27539;SDS011;15906;52.046;4.724;2023-03-03T15:12:55;3.70;;;2.42;;
27539;SDS011;15906;52.046;4.724;2023-03-03T15:15:21;3.42;;;2.45;;
27539;SDS011;15906;52.046;4.724;2023-03-03T15:20:23;4.15;;;2.42;;
27539;SDS011;15906;52.046;4.724;2023-03-03T15:23:03;4.28;;;2.58;;
27539;SDS011;15906;52.046;4.724;2023-03-03T15:28:42;7.40;;;3.47;;
27539;SDS011;15906;52.046;4.724;2023-03-03T15:34:03;7.00;;;3.80;;
27539;SDS011;15906;52.046;4.724;2023-03-03T15:39:35;5.55;;;3.03;;
27539;SDS011;15906;52.046;4.724;2023-03-03T15:42:17;9.25;;;3.47;;
27539;SDS011;15906;52.046;4.724;2023-03-03T15:56:51;8.55;;;3.58;;
27539;SDS011;15906;52.046;4.724;2023-03-03T16:04:39;6.43;;;3.63;;
27539;SDS011;15906;52.046;4.724;2023-03-03T16:07:34;8.98;;;3.60;;
27539;SDS011;15906;52.046;4.724;2023-03-03T16:21:29;6.63;;;2.15;;
27539;SDS011;15906;52.046;4.724;2023-03-03T16:23:59;5.40;;;2.25;;
27539;SDS011;15906;52.046;4.724;2023-03-03T16:29:14;6.43;;;1.92;;
27539;SDS011;15906;52.046;4.724;2023-03-03T16:31:57;7.68;;;2.67;;
27539;SDS011;15906;52.046;4.724;2023-03-03T16:35:01;4.57;;;2.08;;
27539;SDS011;15906;52.046;4.724;2023-03-03T16:40:31;8.55;;;1.80;;
27539;SDS011;15906;52.046;4.724;2023-03-03T16:43:42;10.35;;;2.42;;
27539;SDS011;15906;52.046;4.724;2023-03-03T16:49:02;4.72;;;2.00;;
27539;SDS011;15906;52.046;4.724;2023-03-03T16:56:37;4.55;;;2.28;;
27539;SDS011;15906;52.046;4.724;2023-03-03T17:09:37;15.18;;;3.05;;
27539;SDS011;15906;52.046;4.724;2023-03-03T17:12:18;8.32;;;3.10;;
27539;SDS011;15906;52.046;4.724;2023-03-03T17:18:03;7.43;;;2.10;;
27539;SDS011;15906;52.046;4.724;2023-03-03T17:20:38;5.45;;;2.22;;
27539;SDS011;15906;52.046;4.724;2023-03-03T17:28:57;9.05;;;2.42;;
27539;SDS011;15906;52.046;4.724;2023-03-03T17:31:47;7.85;;;2.60;;
27539;SDS011;15906;52.046;4.724;2023-03-03T17:34:17;12.68;;;2.88;;
27539;SDS011;15906;52.046;4.724;2023-03-03T17:42:46;11.13;;;3.00;;
27539;SDS011;15906;52.046;4.724;2023-03-03T17:45:15;14.10;;;2.45;;
27539;SDS011;15906;52.046;4.724;2023-03-03T17:47:46;14.75;;;2.33;;
27539;SDS011;15906;52.046;4.724;2023-03-03T17:55:52;17.05;;;3.60;;
27539;SDS011;15906;52.046;4.724;2023-03-03T18:16:31;14.75;;;3.53;;
27539;SDS011;15906;52.046;4.724;2023-03-03T18:21:50;10.05;;;3.00;;
27539;SDS011;15906;52.046;4.724;2023-03-03T18:26:49;15.77;;;2.70;;
27539;SDS011;15906;52.046;4.724;2023-03-03T18:31:59;14.13;;;3.20;;
27539;SDS011;15906;52.046;4.724;2023-03-03T18:42:42;14.02;;;3.42;;
27539;SDS011;15906;52.046;4.724;2023-03-03T18:45:11;16.85;;;3.40;;
27539;SDS011;15906;52.046;4.724;2023-03-03T18:48:10;20.45;;;3.92;;
27539;SDS011;15906;52.046;4.724;2023-03-03T18:50:47;15.93;;;3.25;;
27539;SDS011;15906;52.046;4.724;2023-03-03T18:53:18;11.55;;;3.30;;
27539;SDS011;15906;52.046;4.724;2023-03-03T18:55:50;14.00;;;3.55;;
27539;SDS011;15906;52.046;4.724;2023-03-03T19:00:44;11.75;;;3.83;;
27539;SDS011;15906;52.046;4.724;2023-03-03T19:03:23;10.40;;;3.50;;
27539;SDS011;15906;52.046;4.724;2023-03-03T19:05:49;14.85;;;3.88;;
27539;SDS011;15906;52.046;4.724;2023-03-03T19:08:23;13.00;;;3.20;;
27539;SDS011;15906;52.046;4.724;2023-03-03T19:10:51;16.40;;;3.70;;
27539;SDS011;15906;52.046;4.724;2023-03-03T19:18:34;14.82;;;3.17;;
27539;SDS011;15906;52.046;4.724;2023-03-03T19:21:28;18.05;;;3.53;;
27539;SDS011;15906;52.046;4.724;2023-03-03T19:27:22;13.85;;;3.10;;
27539;SDS011;15906;52.046;4.724;2023-03-03T19:40:52;18.15;;;3.05;;
27539;SDS011;15906;52.046;4.724;2023-03-03T20:00:06;14.13;;;4.55;;
27539;SDS011;15906;52.046;4.724;2023-03-03T20:02:44;12.65;;;3.63;;
27539;SDS011;15906;52.046;4.724;2023-03-03T20:08:42;16.88;;;4.70;;
27539;SDS011;15906;52.046;4.724;2023-03-03T20:11:34;17.90;;;5.30;;
27539;SDS011;15906;52.046;4.724;2023-03-03T20:17:47;23.70;;;5.45;;
27539;SDS011;15906;52.046;4.724;2023-03-03T20:22:34;17.02;;;4.47;;
27539;SDS011;15906;52.046;4.724;2023-03-03T20:31:10;17.63;;;4.85;;
27539;SDS011;15906;52.046;4.724;2023-03-03T20:34:15;15.15;;;3.70;;
27539;SDS011;15906;52.046;4.724;2023-03-03T20:36:49;15.95;;;4.03;;
27539;SDS011;15906;52.046;4.724;2023-03-03T20:39:42;12.27;;;3.95;;
27539;SDS011;15906;52.046;4.724;2023-03-03T20:56:00;18.08;;;6.90;;
27539;SDS011;15906;52.046;4.724;2023-03-03T21:04:15;20.02;;;5.63;;
27539;SDS011;15906;52.046;4.724;2023-03-03T21:06:53;15.32;;;4.88;;
27539;SDS011;15906;52.046;4.724;2023-03-03T21:09:23;15.07;;;5.20;;
27539;SDS011;15906;52.046;4.724;2023-03-03T21:11:55;15.95;;;4.25;;
27539;SDS011;15906;52.046;4.724;2023-03-03T21:14:23;21.90;;;4.43;;
27539;SDS011;15906;52.046;4.724;2023-03-03T21:16:55;26.25;;;6.57;;
27539;SDS011;15906;52.046;4.724;2023-03-03T21:19:24;13.93;;;4.70;;
27539;SDS011;15906;52.046;4.724;2023-03-03T21:21:55;22.52;;;3.83;;
27539;SDS011;15906;52.046;4.724;2023-03-03T21:24:22;17.42;;;4.10;;
27539;SDS011;15906;52.046;4.724;2023-03-03T21:27:22;17.92;;;3.88;;
27539;SDS011;15906;52.046;4.724;2023-03-03T21:30:28;17.02;;;3.25;;
27539;SDS011;15906;52.046;4.724;2023-03-03T21:32:47;13.07;;;2.97;;
27539;SDS011;15906;52.046;4.724;2023-03-03T21:35:17;17.55;;;3.95;;
27539;SDS011;15906;52.046;4.724;2023-03-03T21:37:49;19.35;;;4.18;;
27539;SDS011;15906;52.046;4.724;2023-03-03T21:40:17;16.90;;;3.33;;
27539;SDS011;15906;52.046;4.724;2023-03-03T21:42:45;15.10;;;3.58;;
27539;SDS011;15906;52.046;4.724;2023-03-03T21:45:11;18.70;;;2.78;;